Terminal Aerodrome Forecast
Issued by NWS Jackson, KY

Home | Current Version | Previous Version | Text Only | Print | Product List | Glossary On
Versions: 1 2 3 4 5 6 7 8 9 10 11 12 13 14 15 16 17 18 19 20 21 22
122
FTUS43 KJKL 082345
TAFJKL
TAF
KJKL 082345Z 0900/0924 28007KT P6SM FEW035 SCT200
     FM090700 28005KT P6SM -SHSN SCT015 BKN025
     FM091800 28004KT P6SM SCT025=

USA.gov is the U.S. government's official web portal to all federal, state and local government web resources and services.